Fairmont, WV

1:05 AM EST on March 02, 2015 (GMT -0500)
Benedum | Change Station
CLOSE
Current Station
Airport
Location: Clarksburg,
Elevation: 1204 ft
Nearby Weather Stations

Elev 1204 ft 39.30 °N, 80.23 °W | Updated 12 minutes ago

Rain
Rain
38 °F
Feels Like 34 °F
N
6
Wind Variable Wind from WSW

Today
High -- | Low -- °F
--% Chance of Precip.
Yesterday
High -- | Low -- °F
Precip. -- in
6:52 AM 6:13 PM
Waxing Gibbous, 89% visible
Pressure 30.19 in
Visibility 5.0 miles
Clouds Mostly Cloudy 900 ft
Mostly Cloudy 1300 ft
Overcast 2500 ft
Windchill 34 °F
Dew Point 37 °F
Humidity 97%
Rainfall 0.00 in
Snow Depth Not available.
UV 0 out of 12
Pollen .80 out of 12
Air Quality Not available.
Flu Activity Not available.
METAR KCKB 020553Z 25005KT 5SM -RA BR BKN009 BKN013 OVC025 03/03 A3018 RMK AO2 SLP223 P0000 60021 T00330028 10044 20033 58003

More Conditions Fewer Conditions

Pressure 30.19 in
Visibility 5.0 miles
Clouds Mostly Cloudy 900 ft
Mostly Cloudy 1300 ft
Overcast 2500 ft
Windchill 34 °F
Dew Point 37 °F
Humidity 97%
Rainfall 0.00 in
Snow Depth Not available.
UV 0 out of 12
Pollen .80 out of 12
Air Quality Not available.
Flu Activity Not available.
METAR KCKB 020553Z 25005KT 5SM -RA BR BKN009 BKN013 OVC025 03/03 A3018 RMK AO2 SLP223 P0000 60021 T00330028 10044 20033 58003

More Conditions Fewer Conditions

10-Day Weather Forecast

Almanac

Astronomy

Mar. 02, 2015 Rise Set
Actual Time
Civil Twilight
Nautical Twilight
Astronomical Twilight
Moon
Length of Visible Light
Length of Day
Tomorrow will be .
, % of the Moon is Illuminated

Today's Extremes

State Highs State Lows

Community

WunderPhotos

Upload Photos

1,801,738 photos uploaded!

WunderBlogs® & News

Nearby

Air Quality

  Air Quality AQ Index Pollutant
Not available.

Snow Depth

Station Depth Elevation

Earthquake Activity

City Distance Mag. Time & Date
Minimum magnitude displayed is 2.5.

Coastal Water Temperatures

Place Temperature

Nearby Weather Stations